sensor_id;sensor_type;location;lat;lon;timestamp;P1;durP1;ratioP1;P2;durP2;ratioP2
9496;SDS011;4786;51.270;4.456;2023-05-29T00:00:07;14.53;;;7.63;;
9496;SDS011;4786;51.270;4.456;2023-05-29T00:02:34;10.20;;;6.73;;
9496;SDS011;4786;51.270;4.456;2023-05-29T00:05:00;9.27;;;6.57;;
9496;SDS011;4786;51.270;4.456;2023-05-29T00:07:28;12.10;;;6.03;;
9496;SDS011;4786;51.270;4.456;2023-05-29T00:09:55;11.83;;;6.70;;
9496;SDS011;4786;51.270;4.456;2023-05-29T00:12:21;11.80;;;6.80;;
9496;SDS011;4786;51.270;4.456;2023-05-29T00:14:48;11.07;;;6.20;;
9496;SDS011;4786;51.270;4.456;2023-05-29T00:17:14;13.80;;;7.60;;
9496;SDS011;4786;51.270;4.456;2023-05-29T00:19:43;13.03;;;6.60;;
9496;SDS011;4786;51.270;4.456;2023-05-29T00:22:10;9.70;;;5.83;;
9496;SDS011;4786;51.270;4.456;2023-05-29T00:24:36;11.13;;;6.40;;
9496;SDS011;4786;51.270;4.456;2023-05-29T00:27:02;13.17;;;6.60;;
9496;SDS011;4786;51.270;4.456;2023-05-29T00:29:28;12.00;;;6.60;;
9496;SDS011;4786;51.270;4.456;2023-05-29T00:31:54;12.97;;;6.30;;
9496;SDS011;4786;51.270;4.456;2023-05-29T00:34:21;12.90;;;6.50;;
9496;SDS011;4786;51.270;4.456;2023-05-29T00:36:48;13.90;;;6.67;;
9496;SDS011;4786;51.270;4.456;2023-05-29T00:39:14;12.43;;;6.77;;
9496;SDS011;4786;51.270;4.456;2023-05-29T00:41:40;18.60;;;7.10;;
9496;SDS011;4786;51.270;4.456;2023-05-29T00:44:06;10.87;;;5.93;;
9496;SDS011;4786;51.270;4.456;2023-05-29T00:46:32;10.37;;;5.47;;
9496;SDS011;4786;51.270;4.456;2023-05-29T00:48:59;13.50;;;6.17;;
9496;SDS011;4786;51.270;4.456;2023-05-29T00:51:26;12.03;;;5.83;;
9496;SDS011;4786;51.270;4.456;2023-05-29T00:53:54;12.10;;;6.17;;
9496;SDS011;4786;51.270;4.456;2023-05-29T00:56:22;10.93;;;6.33;;
9496;SDS011;4786;51.270;4.456;2023-05-29T00:58:49;13.17;;;5.47;;
9496;SDS011;4786;51.270;4.456;2023-05-29T01:01:19;12.30;;;5.83;;
9496;SDS011;4786;51.270;4.456;2023-05-29T01:03:46;11.70;;;5.60;;
9496;SDS011;4786;51.270;4.456;2023-05-29T01:06:13;11.73;;;5.37;;
9496;SDS011;4786;51.270;4.456;2023-05-29T01:08:39;13.10;;;5.03;;
9496;SDS011;4786;51.270;4.456;2023-05-29T01:11:12;17.77;;;5.90;;
9496;SDS011;4786;51.270;4.456;2023-05-29T01:13:47;13.23;;;4.87;;
9496;SDS011;4786;51.270;4.456;2023-05-29T01:18:50;11.80;;;4.73;;
9496;SDS011;4786;51.270;4.456;2023-05-29T01:27:17;15.03;;;4.80;;
9496;SDS011;4786;51.270;4.456;2023-05-29T01:29:44;10.87;;;4.30;;
9496;SDS011;4786;51.270;4.456;2023-05-29T01:32:12;10.43;;;3.97;;
9496;SDS011;4786;51.270;4.456;2023-05-29T01:34:38;10.10;;;3.70;;
9496;SDS011;4786;51.270;4.456;2023-05-29T01:37:04;13.10;;;4.33;;
9496;SDS011;4786;51.270;4.456;2023-05-29T01:39:30;12.47;;;4.20;;
9496;SDS011;4786;51.270;4.456;2023-05-29T01:41:57;14.93;;;4.30;;
9496;SDS011;4786;51.270;4.456;2023-05-29T01:44:25;14.43;;;4.33;;
9496;SDS011;4786;51.270;4.456;2023-05-29T01:46:51;9.77;;;4.40;;
9496;SDS011;4786;51.270;4.456;2023-05-29T01:49:17;10.87;;;4.17;;
9496;SDS011;4786;51.270;4.456;2023-05-29T01:51:44;13.60;;;4.37;;
9496;SDS011;4786;51.270;4.456;2023-05-29T01:54:10;13.37;;;4.30;;
9496;SDS011;4786;51.270;4.456;2023-05-29T01:56:36;14.73;;;4.27;;
9496;SDS011;4786;51.270;4.456;2023-05-29T01:59:03;18.53;;;4.67;;
9496;SDS011;4786;51.270;4.456;2023-05-29T02:01:30;11.13;;;4.43;;
9496;SDS011;4786;51.270;4.456;2023-05-29T02:03:56;12.30;;;4.13;;
9496;SDS011;4786;51.270;4.456;2023-05-29T02:06:22;13.80;;;3.97;;
9496;SDS011;4786;51.270;4.456;2023-05-29T02:08:49;15.60;;;4.17;;
9496;SDS011;4786;51.270;4.456;2023-05-29T02:11:15;11.57;;;3.70;;
9496;SDS011;4786;51.270;4.456;2023-05-29T02:13:41;12.83;;;4.10;;
9496;SDS011;4786;51.270;4.456;2023-05-29T02:16:07;19.40;;;5.47;;
9496;SDS011;4786;51.270;4.456;2023-05-29T02:18:33;13.13;;;4.03;;
9496;SDS011;4786;51.270;4.456;2023-05-29T02:20:59;14.40;;;4.07;;
9496;SDS011;4786;51.270;4.456;2023-05-29T02:23:25;12.50;;;4.03;;
9496;SDS011;4786;51.270;4.456;2023-05-29T02:25:52;11.47;;;4.03;;
9496;SDS011;4786;51.270;4.456;2023-05-29T02:28:18;12.83;;;3.80;;
9496;SDS011;4786;51.270;4.456;2023-05-29T02:30:43;11.97;;;4.43;;
9496;SDS011;4786;51.270;4.456;2023-05-29T02:33:09;11.13;;;4.50;;
9496;SDS011;4786;51.270;4.456;2023-05-29T02:35:35;13.37;;;4.87;;
9496;SDS011;4786;51.270;4.456;2023-05-29T02:38:01;13.27;;;4.37;;
9496;SDS011;4786;51.270;4.456;2023-05-29T02:40:27;15.50;;;4.60;;
9496;SDS011;4786;51.270;4.456;2023-05-29T02:42:53;13.33;;;4.43;;
9496;SDS011;4786;51.270;4.456;2023-05-29T02:45:19;12.70;;;4.17;;
9496;SDS011;4786;51.270;4.456;2023-05-29T02:47:45;12.37;;;4.43;;
9496;SDS011;4786;51.270;4.456;2023-05-29T02:50:11;11.93;;;3.70;;
9496;SDS011;4786;51.270;4.456;2023-05-29T02:52:39;12.80;;;4.00;;
9496;SDS011;4786;51.270;4.456;2023-05-29T02:55:06;11.50;;;4.57;;
9496;SDS011;4786;51.270;4.456;2023-05-29T02:57:32;10.10;;;3.40;;
9496;SDS011;4786;51.270;4.456;2023-05-29T02:59:59;10.93;;;3.80;;
9496;SDS011;4786;51.270;4.456;2023-05-29T03:02:25;10.87;;;3.93;;
9496;SDS011;4786;51.270;4.456;2023-05-29T03:04:52;11.37;;;3.83;;
9496;SDS011;4786;51.270;4.456;2023-05-29T03:07:18;13.63;;;4.13;;
9496;SDS011;4786;51.270;4.456;2023-05-29T03:09:44;12.40;;;3.63;;
9496;SDS011;4786;51.270;4.456;2023-05-29T03:12:10;14.83;;;3.80;;
9496;SDS011;4786;51.270;4.456;2023-05-29T03:14:36;13.97;;;4.27;;
9496;SDS011;4786;51.270;4.456;2023-05-29T03:17:06;17.63;;;4.80;;
9496;SDS011;4786;51.270;4.456;2023-05-29T03:19:32;12.40;;;4.47;;
9496;SDS011;4786;51.270;4.456;2023-05-29T03:21:58;13.87;;;4.50;;
9496;SDS011;4786;51.270;4.456;2023-05-29T03:24:24;14.17;;;4.70;;
9496;SDS011;4786;51.270;4.456;2023-05-29T03:26:50;15.57;;;4.47;;
9496;SDS011;4786;51.270;4.456;2023-05-29T03:29:17;13.20;;;4.23;;
9496;SDS011;4786;51.270;4.456;2023-05-29T03:31:43;13.13;;;4.17;;
9496;SDS011;4786;51.270;4.456;2023-05-29T03:34:09;13.17;;;4.20;;
9496;SDS011;4786;51.270;4.456;2023-05-29T03:36:35;13.63;;;4.13;;
9496;SDS011;4786;51.270;4.456;2023-05-29T03:39:04;14.27;;;4.53;;
9496;SDS011;4786;51.270;4.456;2023-05-29T03:41:29;13.77;;;4.33;;
9496;SDS011;4786;51.270;4.456;2023-05-29T03:43:55;15.70;;;4.50;;
9496;SDS011;4786;51.270;4.456;2023-05-29T03:46:21;22.53;;;5.20;;
9496;SDS011;4786;51.270;4.456;2023-05-29T03:48:47;12.80;;;4.30;;
9496;SDS011;4786;51.270;4.456;2023-05-29T03:51:13;15.53;;;4.20;;
9496;SDS011;4786;51.270;4.456;2023-05-29T03:53:39;14.07;;;4.43;;
9496;SDS011;4786;51.270;4.456;2023-05-29T03:56:05;14.00;;;4.27;;
9496;SDS011;4786;51.270;4.456;2023-05-29T03:58:31;12.57;;;4.30;;
9496;SDS011;4786;51.270;4.456;2023-05-29T04:00:57;18.57;;;4.57;;
9496;SDS011;4786;51.270;4.456;2023-05-29T04:03:23;16.13;;;4.77;;
9496;SDS011;4786;51.270;4.456;2023-05-29T04:05:49;13.13;;;3.70;;
9496;SDS011;4786;51.270;4.456;2023-05-29T04:08:15;17.30;;;4.43;;
9496;SDS011;4786;51.270;4.456;2023-05-29T04:10:41;11.83;;;3.73;;
9496;SDS011;4786;51.270;4.456;2023-05-29T04:13:08;13.07;;;4.53;;
9496;SDS011;4786;51.270;4.456;2023-05-29T04:15:34;16.73;;;4.47;;
9496;SDS011;4786;51.270;4.456;2023-05-29T04:18:00;12.37;;;4.10;;
9496;SDS011;4786;51.270;4.456;2023-05-29T04:20:26;11.83;;;3.70;;
9496;SDS011;4786;51.270;4.456;2023-05-29T04:22:52;12.90;;;4.07;;
9496;SDS011;4786;51.270;4.456;2023-05-29T04:25:18;16.27;;;4.23;;
9496;SDS011;4786;51.270;4.456;2023-05-29T04:27:44;15.17;;;4.20;;
9496;SDS011;4786;51.270;4.456;2023-05-29T04:30:13;14.67;;;4.30;;
9496;SDS011;4786;51.270;4.456;2023-05-29T04:32:40;10.70;;;3.57;;
9496;SDS011;4786;51.270;4.456;2023-05-29T04:35:07;18.50;;;4.73;;
9496;SDS011;4786;51.270;4.456;2023-05-29T04:37:32;13.17;;;3.87;;
9496;SDS011;4786;51.270;4.456;2023-05-29T04:40:06;18.30;;;4.27;;
9496;SDS011;4786;51.270;4.456;2023-05-29T04:42:34;17.90;;;4.40;;
9496;SDS011;4786;51.270;4.456;2023-05-29T04:45:01;16.90;;;4.33;;
9496;SDS011;4786;51.270;4.456;2023-05-29T04:47:28;16.93;;;4.63;;
9496;SDS011;4786;51.270;4.456;2023-05-29T04:49:54;13.53;;;4.03;;
9496;SDS011;4786;51.270;4.456;2023-05-29T04:52:20;15.07;;;3.80;;
9496;SDS011;4786;51.270;4.456;2023-05-29T04:54:46;10.67;;;3.73;;
9496;SDS011;4786;51.270;4.456;2023-05-29T04:57:12;17.67;;;4.40;;
9496;SDS011;4786;51.270;4.456;2023-05-29T04:59:39;14.00;;;4.30;;
9496;SDS011;4786;51.270;4.456;2023-05-29T05:02:04;13.17;;;4.03;;
9496;SDS011;4786;51.270;4.456;2023-05-29T05:04:31;20.10;;;4.30;;
9496;SDS011;4786;51.270;4.456;2023-05-29T05:06:57;17.43;;;3.83;;
9496;SDS011;4786;51.270;4.456;2023-05-29T05:09:23;16.07;;;4.40;;
9496;SDS011;4786;51.270;4.456;2023-05-29T05:11:49;15.27;;;4.30;;
9496;SDS011;4786;51.270;4.456;2023-05-29T05:14:15;14.70;;;4.10;;
9496;SDS011;4786;51.270;4.456;2023-05-29T05:16:41;15.97;;;4.03;;
9496;SDS011;4786;51.270;4.456;2023-05-29T05:19:07;12.80;;;4.00;;
9496;SDS011;4786;51.270;4.456;2023-05-29T05:21:33;15.10;;;4.03;;
9496;SDS011;4786;51.270;4.456;2023-05-29T05:23:59;15.07;;;4.17;;
9496;SDS011;4786;51.270;4.456;2023-05-29T05:26:25;13.73;;;3.63;;
9496;SDS011;4786;51.270;4.456;2023-05-29T05:28:51;12.60;;;3.80;;
9496;SDS011;4786;51.270;4.456;2023-05-29T05:31:17;10.90;;;3.47;;
9496;SDS011;4786;51.270;4.456;2023-05-29T05:33:44;10.10;;;3.50;;
9496;SDS011;4786;51.270;4.456;2023-05-29T05:36:10;9.63;;;3.50;;
9496;SDS011;4786;51.270;4.456;2023-05-29T05:38:36;12.60;;;4.23;;
9496;SDS011;4786;51.270;4.456;2023-05-29T05:41:02;10.00;;;3.70;;
9496;SDS011;4786;51.270;4.456;2023-05-29T05:43:28;11.38;;;3.30;;
9496;SDS011;4786;51.270;4.456;2023-05-29T05:45:54;10.95;;;3.60;;
9496;SDS011;4786;51.270;4.456;2023-05-29T05:48:20;10.48;;;3.63;;
9496;SDS011;4786;51.270;4.456;2023-05-29T05:50:46;14.32;;;3.65;;
9496;SDS011;4786;51.270;4.456;2023-05-29T05:53:12;8.85;;;3.20;;
9496;SDS011;4786;51.270;4.456;2023-05-29T05:55:38;9.10;;;3.63;;
9496;SDS011;4786;51.270;4.456;2023-05-29T05:58:04;10.00;;;3.85;;
9496;SDS011;4786;51.270;4.456;2023-05-29T06:00:29;11.40;;;3.67;;
9496;SDS011;4786;51.270;4.456;2023-05-29T06:02:55;8.07;;;3.10;;
9496;SDS011;4786;51.270;4.456;2023-05-29T06:05:22;8.23;;;3.22;;
9496;SDS011;4786;51.270;4.456;2023-05-29T06:07:48;9.65;;;3.22;;
9496;SDS011;4786;51.270;4.456;2023-05-29T06:10:14;9.23;;;3.35;;
9496;SDS011;4786;51.270;4.456;2023-05-29T06:12:39;7.80;;;3.00;;
9496;SDS011;4786;51.270;4.456;2023-05-29T06:15:05;11.70;;;3.40;;
9496;SDS011;4786;51.270;4.456;2023-05-29T06:17:32;9.00;;;3.10;;
9496;SDS011;4786;51.270;4.456;2023-05-29T06:19:57;9.85;;;3.22;;
9496;SDS011;4786;51.270;4.456;2023-05-29T06:22:23;9.55;;;3.40;;
9496;SDS011;4786;51.270;4.456;2023-05-29T06:24:48;10.27;;;3.40;;
9496;SDS011;4786;51.270;4.456;2023-05-29T06:27:14;10.13;;;3.95;;
9496;SDS011;4786;51.270;4.456;2023-05-29T06:29:40;9.32;;;4.13;;
9496;SDS011;4786;51.270;4.456;2023-05-29T06:32:06;8.27;;;3.42;;
9496;SDS011;4786;51.270;4.456;2023-05-29T06:34:32;9.65;;;3.53;;
9496;SDS011;4786;51.270;4.456;2023-05-29T06:36:58;8.15;;;2.97;;
9496;SDS011;4786;51.270;4.456;2023-05-29T06:39:24;11.05;;;3.83;;
9496;SDS011;4786;51.270;4.456;2023-05-29T06:41:50;6.68;;;3.03;;
9496;SDS011;4786;51.270;4.456;2023-05-29T06:44:15;8.90;;;3.42;;
9496;SDS011;4786;51.270;4.456;2023-05-29T06:46:41;9.02;;;3.50;;
9496;SDS011;4786;51.270;4.456;2023-05-29T06:49:08;7.43;;;3.20;;
9496;SDS011;4786;51.270;4.456;2023-05-29T06:51:34;10.05;;;3.20;;
9496;SDS011;4786;51.270;4.456;2023-05-29T06:54:00;9.77;;;3.67;;
9496;SDS011;4786;51.270;4.456;2023-05-29T06:56:26;8.05;;;3.83;;
9496;SDS011;4786;51.270;4.456;2023-05-29T06:58:53;8.52;;;2.95;;
9496;SDS011;4786;51.270;4.456;2023-05-29T07:01:19;9.25;;;3.60;;
9496;SDS011;4786;51.270;4.456;2023-05-29T07:03:45;10.80;;;2.88;;
9496;SDS011;4786;51.270;4.456;2023-05-29T07:06:11;11.20;;;3.55;;
9496;SDS011;4786;51.270;4.456;2023-05-29T07:08:38;9.73;;;3.38;;
9496;SDS011;4786;51.270;4.456;2023-05-29T07:11:04;8.93;;;3.28;;
9496;SDS011;4786;51.270;4.456;2023-05-29T07:13:29;8.10;;;2.72;;
9496;SDS011;4786;51.270;4.456;2023-05-29T07:15:55;7.10;;;3.08;;
9496;SDS011;4786;51.270;4.456;2023-05-29T07:18:22;8.77;;;3.58;;
9496;SDS011;4786;51.270;4.456;2023-05-29T07:20:47;12.25;;;3.58;;
9496;SDS011;4786;51.270;4.456;2023-05-29T07:23:13;8.43;;;3.03;;
9496;SDS011;4786;51.270;4.456;2023-05-29T07:25:38;9.95;;;3.42;;
9496;SDS011;4786;51.270;4.456;2023-05-29T07:28:04;10.27;;;3.53;;
9496;SDS011;4786;51.270;4.456;2023-05-29T07:30:30;10.15;;;3.30;;
9496;SDS011;4786;51.270;4.456;2023-05-29T07:32:56;12.93;;;3.72;;
9496;SDS011;4786;51.270;4.456;2023-05-29T07:35:22;10.77;;;3.22;;
9496;SDS011;4786;51.270;4.456;2023-05-29T07:37:48;7.85;;;3.08;;
9496;SDS011;4786;51.270;4.456;2023-05-29T07:40:15;8.25;;;3.72;;
9496;SDS011;4786;51.270;4.456;2023-05-29T07:42:40;8.50;;;3.33;;
9496;SDS011;4786;51.270;4.456;2023-05-29T07:45:06;10.63;;;3.47;;
9496;SDS011;4786;51.270;4.456;2023-05-29T07:47:32;10.87;;;3.40;;
9496;SDS011;4786;51.270;4.456;2023-05-29T07:49:58;11.10;;;3.40;;
9496;SDS011;4786;51.270;4.456;2023-05-29T07:52:24;8.37;;;3.40;;
9496;SDS011;4786;51.270;4.456;2023-05-29T07:54:50;11.67;;;3.17;;
9496;SDS011;4786;51.270;4.456;2023-05-29T07:57:17;9.57;;;3.43;;
9496;SDS011;4786;51.270;4.456;2023-05-29T07:59:43;8.37;;;2.93;;
9496;SDS011;4786;51.270;4.456;2023-05-29T08:02:09;9.97;;;3.50;;
9496;SDS011;4786;51.270;4.456;2023-05-29T08:04:35;11.47;;;3.20;;
9496;SDS011;4786;51.270;4.456;2023-05-29T08:07:02;12.17;;;4.03;;
9496;SDS011;4786;51.270;4.456;2023-05-29T08:09:30;9.27;;;3.47;;
9496;SDS011;4786;51.270;4.456;2023-05-29T08:11:57;9.67;;;3.40;;
9496;SDS011;4786;51.270;4.456;2023-05-29T08:14:23;11.73;;;3.30;;
9496;SDS011;4786;51.270;4.456;2023-05-29T08:16:49;9.03;;;3.27;;
9496;SDS011;4786;51.270;4.456;2023-05-29T08:19:15;9.67;;;3.57;;
9496;SDS011;4786;51.270;4.456;2023-05-29T08:21:41;15.60;;;3.80;;
9496;SDS011;4786;51.270;4.456;2023-05-29T08:24:07;11.50;;;3.33;;
9496;SDS011;4786;51.270;4.456;2023-05-29T08:26:34;9.23;;;3.40;;
9496;SDS011;4786;51.270;4.456;2023-05-29T08:29:00;7.13;;;2.80;;
9496;SDS011;4786;51.270;4.456;2023-05-29T08:31:26;10.93;;;3.00;;
9496;SDS011;4786;51.270;4.456;2023-05-29T08:33:53;11.80;;;3.20;;
9496;SDS011;4786;51.270;4.456;2023-05-29T08:36:19;7.60;;;2.93;;
9496;SDS011;4786;51.270;4.456;2023-05-29T08:38:49;10.83;;;3.23;;
9496;SDS011;4786;51.270;4.456;2023-05-29T08:41:21;11.73;;;3.77;;
9496;SDS011;4786;51.270;4.456;2023-05-29T08:43:54;10.77;;;3.57;;
9496;SDS011;4786;51.270;4.456;2023-05-29T08:46:21;13.30;;;3.73;;
9496;SDS011;4786;51.270;4.456;2023-05-29T08:48:48;12.03;;;3.20;;
9496;SDS011;4786;51.270;4.456;2023-05-29T08:51:21;8.83;;;3.20;;
9496;SDS011;4786;51.270;4.456;2023-05-29T08:53:54;9.33;;;3.57;;
9496;SDS011;4786;51.270;4.456;2023-05-29T08:56:21;9.80;;;3.17;;
9496;SDS011;4786;51.270;4.456;2023-05-29T08:58:48;12.13;;;3.60;;
9496;SDS011;4786;51.270;4.456;2023-05-29T09:01:15;7.67;;;3.50;;
9496;SDS011;4786;51.270;4.456;2023-05-29T09:03:42;6.47;;;2.90;;
9496;SDS011;4786;51.270;4.456;2023-05-29T09:06:08;6.90;;;2.80;;
9496;SDS011;4786;51.270;4.456;2023-05-29T09:08:34;9.73;;;2.97;;
9496;SDS011;4786;51.270;4.456;2023-05-29T09:11:01;8.63;;;3.00;;
9496;SDS011;4786;51.270;4.456;2023-05-29T09:13:26;8.97;;;3.33;;
9496;SDS011;4786;51.270;4.456;2023-05-29T09:15:59;7.37;;;3.07;;
9496;SDS011;4786;51.270;4.456;2023-05-29T09:18:28;8.33;;;2.67;;
9496;SDS011;4786;51.270;4.456;2023-05-29T09:20:55;9.20;;;3.30;;
9496;SDS011;4786;51.270;4.456;2023-05-29T09:23:21;8.03;;;3.00;;
9496;SDS011;4786;51.270;4.456;2023-05-29T09:25:50;6.93;;;3.03;;
9496;SDS011;4786;51.270;4.456;2023-05-29T09:28:18;8.17;;;3.00;;
9496;SDS011;4786;51.270;4.456;2023-05-29T09:30:46;11.83;;;2.97;;
9496;SDS011;4786;51.270;4.456;2023-05-29T09:33:13;13.13;;;3.60;;
9496;SDS011;4786;51.270;4.456;2023-05-29T09:35:41;8.00;;;3.23;;
9496;SDS011;4786;51.270;4.456;2023-05-29T09:38:09;7.60;;;2.97;;
9496;SDS011;4786;51.270;4.456;2023-05-29T09:40:37;11.50;;;3.33;;
9496;SDS011;4786;51.270;4.456;2023-05-29T09:43:14;7.17;;;2.60;;
9496;SDS011;4786;51.270;4.456;2023-05-29T09:45:48;8.07;;;3.00;;
9496;SDS011;4786;51.270;4.456;2023-05-29T09:48:15;6.57;;;2.87;;
9496;SDS011;4786;51.270;4.456;2023-05-29T09:50:44;8.83;;;3.00;;
9496;SDS011;4786;51.270;4.456;2023-05-29T09:53:19;8.73;;;3.10;;
9496;SDS011;4786;51.270;4.456;2023-05-29T09:55:47;6.67;;;2.97;;
9496;SDS011;4786;51.270;4.456;2023-05-29T09:58:14;7.83;;;3.30;;
9496;SDS011;4786;51.270;4.456;2023-05-29T10:00:43;7.47;;;3.07;;
9496;SDS011;4786;51.270;4.456;2023-05-29T10:03:10;8.37;;;2.60;;
9496;SDS011;4786;51.270;4.456;2023-05-29T10:05:40;7.43;;;2.87;;
9496;SDS011;4786;51.270;4.456;2023-05-29T10:08:13;10.30;;;3.03;;
9496;SDS011;4786;51.270;4.456;2023-05-29T10:10:44;9.13;;;3.10;;
9496;SDS011;4786;51.270;4.456;2023-05-29T10:13:19;8.83;;;3.20;;
9496;SDS011;4786;51.270;4.456;2023-05-29T10:15:47;10.17;;;2.97;;
9496;SDS011;4786;51.270;4.456;2023-05-29T10:18:21;13.87;;;3.00;;
9496;SDS011;4786;51.270;4.456;2023-05-29T10:20:56;7.43;;;2.93;;
9496;SDS011;4786;51.270;4.456;2023-05-29T10:23:23;6.40;;;2.92;;
9496;SDS011;4786;51.270;4.456;2023-05-29T10:25:55;6.75;;;2.90;;
9496;SDS011;4786;51.270;4.456;2023-05-29T10:28:25;7.40;;;2.72;;
9496;SDS011;4786;51.270;4.456;2023-05-29T10:30:53;11.93;;;3.17;;
9496;SDS011;4786;51.270;4.456;2023-05-29T10:38:29;10.02;;;2.92;;
9496;SDS011;4786;51.270;4.456;2023-05-29T10:40:55;8.02;;;3.25;;
9496;SDS011;4786;51.270;4.456;2023-05-29T10:43:29;7.63;;;3.17;;
9496;SDS011;4786;51.270;4.456;2023-05-29T10:46:02;6.77;;;3.07;;
9496;SDS011;4786;51.270;4.456;2023-05-29T10:48:38;9.13;;;3.03;;
9496;SDS011;4786;51.270;4.456;2023-05-29T10:51:05;7.50;;;3.03;;
9496;SDS011;4786;51.270;4.456;2023-05-29T10:53:32;10.65;;;3.22;;
9496;SDS011;4786;51.270;4.456;2023-05-29T10:55:59;8.00;;;3.35;;
9496;SDS011;4786;51.270;4.456;2023-05-29T10:58:26;12.88;;;3.55;;
9496;SDS011;4786;51.270;4.456;2023-05-29T11:00:53;7.78;;;2.83;;
9496;SDS011;4786;51.270;4.456;2023-05-29T11:03:21;9.00;;;3.40;;
9496;SDS011;4786;51.270;4.456;2023-05-29T11:05:58;9.52;;;3.40;;
9496;SDS011;4786;51.270;4.456;2023-05-29T11:11:00;10.82;;;3.85;;
9496;SDS011;4786;51.270;4.456;2023-05-29T11:13:34;9.23;;;3.40;;
9496;SDS011;4786;51.270;4.456;2023-05-29T11:16:04;7.72;;;3.22;;
9496;SDS011;4786;51.270;4.456;2023-05-29T11:18:38;9.27;;;3.17;;
9496;SDS011;4786;51.270;4.456;2023-05-29T11:21:07;7.05;;;3.38;;
9496;SDS011;4786;51.270;4.456;2023-05-29T11:23:44;8.63;;;3.35;;
9496;SDS011;4786;51.270;4.456;2023-05-29T11:26:11;6.78;;;2.70;;
9496;SDS011;4786;51.270;4.456;2023-05-29T11:28:38;8.57;;;3.40;;
9496;SDS011;4786;51.270;4.456;2023-05-29T11:31:07;6.70;;;3.40;;
9496;SDS011;4786;51.270;4.456;2023-05-29T11:33:34;9.13;;;3.45;;
9496;SDS011;4786;51.270;4.456;2023-05-29T11:36:07;8.88;;;3.33;;
9496;SDS011;4786;51.270;4.456;2023-05-29T11:38:34;8.00;;;3.15;;
9496;SDS011;4786;51.270;4.456;2023-05-29T11:41:01;7.00;;;3.28;;
9496;SDS011;4786;51.270;4.456;2023-05-29T11:43:28;6.53;;;3.00;;
9496;SDS011;4786;51.270;4.456;2023-05-29T11:45:54;7.70;;;2.67;;
9496;SDS011;4786;51.270;4.456;2023-05-29T11:48:20;8.75;;;3.00;;
9496;SDS011;4786;51.270;4.456;2023-05-29T11:50:46;8.65;;;3.05;;
9496;SDS011;4786;51.270;4.456;2023-05-29T11:53:12;10.77;;;3.88;;
9496;SDS011;4786;51.270;4.456;2023-05-29T11:55:39;10.45;;;3.50;;
9496;SDS011;4786;51.270;4.456;2023-05-29T11:58:05;13.23;;;2.92;;
9496;SDS011;4786;51.270;4.456;2023-05-29T12:00:32;12.35;;;3.78;;
9496;SDS011;4786;51.270;4.456;2023-05-29T12:03:02;9.63;;;3.03;;
9496;SDS011;4786;51.270;4.456;2023-05-29T12:05:30;7.30;;;3.38;;
9496;SDS011;4786;51.270;4.456;2023-05-29T12:07:57;7.70;;;3.40;;
9496;SDS011;4786;51.270;4.456;2023-05-29T12:10:26;16.08;;;3.63;;
9496;SDS011;4786;51.270;4.456;2023-05-29T12:12:53;9.68;;;3.60;;
9496;SDS011;4786;51.270;4.456;2023-05-29T12:15:21;9.23;;;3.58;;
9496;SDS011;4786;51.270;4.456;2023-05-29T12:17:47;9.13;;;3.00;;
9496;SDS011;4786;51.270;4.456;2023-05-29T12:20:14;8.52;;;3.08;;
9496;SDS011;4786;51.270;4.456;2023-05-29T12:22:41;7.05;;;2.97;;
9496;SDS011;4786;51.270;4.456;2023-05-29T12:27:39;8.68;;;3.17;;
9496;SDS011;4786;51.270;4.456;2023-05-29T12:30:12;8.75;;;2.92;;
9496;SDS011;4786;51.270;4.456;2023-05-29T12:32:43;6.47;;;3.10;;
9496;SDS011;4786;51.270;4.456;2023-05-29T12:37:41;9.10;;;3.10;;
9496;SDS011;4786;51.270;4.456;2023-05-29T12:42:43;9.65;;;2.75;;
9496;SDS011;4786;51.270;4.456;2023-05-29T12:45:10;7.22;;;3.10;;
9496;SDS011;4786;51.270;4.456;2023-05-29T12:47:37;9.70;;;3.30;;
9496;SDS011;4786;51.270;4.456;2023-05-29T12:50:25;5.88;;;2.92;;
9496;SDS011;4786;51.270;4.456;2023-05-29T12:53:00;9.07;;;2.75;;
9496;SDS011;4786;51.270;4.456;2023-05-29T12:55:31;6.57;;;2.72;;
9496;SDS011;4786;51.270;4.456;2023-05-29T12:58:05;7.57;;;3.00;;
9496;SDS011;4786;51.270;4.456;2023-05-29T13:00:37;10.38;;;3.20;;
9496;SDS011;4786;51.270;4.456;2023-05-29T13:03:06;6.00;;;3.05;;
9496;SDS011;4786;51.270;4.456;2023-05-29T13:05:32;8.70;;;2.97;;
9496;SDS011;4786;51.270;4.456;2023-05-29T13:07:58;9.00;;;3.20;;
9496;SDS011;4786;51.270;4.456;2023-05-29T13:10:25;7.00;;;3.13;;
9496;SDS011;4786;51.270;4.456;2023-05-29T13:12:51;6.70;;;2.85;;
9496;SDS011;4786;51.270;4.456;2023-05-29T13:15:20;5.53;;;2.85;;
9496;SDS011;4786;51.270;4.456;2023-05-29T13:17:47;6.28;;;2.70;;
9496;SDS011;4786;51.270;4.456;2023-05-29T13:20:13;7.50;;;3.10;;
9496;SDS011;4786;51.270;4.456;2023-05-29T13:22:40;6.45;;;2.60;;
9496;SDS011;4786;51.270;4.456;2023-05-29T13:25:07;8.73;;;3.42;;
9496;SDS011;4786;51.270;4.456;2023-05-29T13:27:36;6.93;;;2.88;;
9496;SDS011;4786;51.270;4.456;2023-05-29T13:30:03;8.57;;;3.05;;
9496;SDS011;4786;51.270;4.456;2023-05-29T13:32:30;8.65;;;2.97;;
9496;SDS011;4786;51.270;4.456;2023-05-29T13:34:56;9.32;;;2.70;;
9496;SDS011;4786;51.270;4.456;2023-05-29T13:37:22;5.70;;;2.60;;
9496;SDS011;4786;51.270;4.456;2023-05-29T13:39:49;5.70;;;2.75;;
9496;SDS011;4786;51.270;4.456;2023-05-29T13:42:15;7.95;;;2.88;;
9496;SDS011;4786;51.270;4.456;2023-05-29T13:44:43;6.88;;;2.80;;
9496;SDS011;4786;51.270;4.456;2023-05-29T13:47:09;6.40;;;2.78;;
9496;SDS011;4786;51.270;4.456;2023-05-29T13:49:35;6.32;;;2.75;;
9496;SDS011;4786;51.270;4.456;2023-05-29T13:52:02;5.90;;;2.53;;
9496;SDS011;4786;51.270;4.456;2023-05-29T13:54:29;6.82;;;2.80;;
9496;SDS011;4786;51.270;4.456;2023-05-29T13:56:56;6.00;;;2.50;;
9496;SDS011;4786;51.270;4.456;2023-05-29T13:59:24;8.98;;;2.90;;
9496;SDS011;4786;51.270;4.456;2023-05-29T14:01:50;9.25;;;2.88;;
9496;SDS011;4786;51.270;4.456;2023-05-29T14:04:16;6.35;;;2.63;;
9496;SDS011;4786;51.270;4.456;2023-05-29T14:06:42;8.80;;;2.78;;
9496;SDS011;4786;51.270;4.456;2023-05-29T14:09:07;7.45;;;2.90;;
9496;SDS011;4786;51.270;4.456;2023-05-29T14:11:35;7.25;;;3.00;;
9496;SDS011;4786;51.270;4.456;2023-05-29T14:14:02;5.28;;;2.60;;
9496;SDS011;4786;51.270;4.456;2023-05-29T14:16:28;9.20;;;3.08;;
9496;SDS011;4786;51.270;4.456;2023-05-29T14:18:54;6.32;;;2.58;;
9496;SDS011;4786;51.270;4.456;2023-05-29T14:21:21;7.80;;;3.30;;
9496;SDS011;4786;51.270;4.456;2023-05-29T14:23:47;9.85;;;3.38;;
9496;SDS011;4786;51.270;4.456;2023-05-29T14:26:13;6.53;;;2.80;;
9496;SDS011;4786;51.270;4.456;2023-05-29T14:28:39;6.18;;;2.90;;
9496;SDS011;4786;51.270;4.456;2023-05-29T14:31:06;7.82;;;3.10;;
9496;SDS011;4786;51.270;4.456;2023-05-29T14:33:31;9.57;;;3.08;;
9496;SDS011;4786;51.270;4.456;2023-05-29T14:35:58;6.25;;;2.83;;
9496;SDS011;4786;51.270;4.456;2023-05-29T14:38:24;8.65;;;3.30;;
9496;SDS011;4786;51.270;4.456;2023-05-29T14:40:52;10.35;;;3.75;;
9496;SDS011;4786;51.270;4.456;2023-05-29T14:43:18;11.05;;;3.17;;
9496;SDS011;4786;51.270;4.456;2023-05-29T14:45:46;8.43;;;3.25;;
9496;SDS011;4786;51.270;4.456;2023-05-29T14:48:18;7.85;;;3.60;;
9496;SDS011;4786;51.270;4.456;2023-05-29T14:50:46;6.57;;;3.10;;
9496;SDS011;4786;51.270;4.456;2023-05-29T14:53:13;8.32;;;3.13;;
9496;SDS011;4786;51.270;4.456;2023-05-29T14:55:38;9.70;;;3.38;;
9496;SDS011;4786;51.270;4.456;2023-05-29T14:58:04;9.07;;;3.05;;
9496;SDS011;4786;51.270;4.456;2023-05-29T15:00:30;7.35;;;3.08;;
9496;SDS011;4786;51.270;4.456;2023-05-29T15:02:56;9.00;;;3.20;;
9496;SDS011;4786;51.270;4.456;2023-05-29T15:05:24;8.50;;;2.88;;
9496;SDS011;4786;51.270;4.456;2023-05-29T15:07:51;9.43;;;3.50;;
9496;SDS011;4786;51.270;4.456;2023-05-29T15:10:19;8.15;;;3.40;;
9496;SDS011;4786;51.270;4.456;2023-05-29T15:12:46;8.68;;;3.00;;
9496;SDS011;4786;51.270;4.456;2023-05-29T15:15:11;9.55;;;3.53;;
9496;SDS011;4786;51.270;4.456;2023-05-29T15:17:37;11.68;;;3.50;;
9496;SDS011;4786;51.270;4.456;2023-05-29T15:20:04;10.30;;;3.80;;
9496;SDS011;4786;51.270;4.456;2023-05-29T15:22:31;11.88;;;3.50;;
9496;SDS011;4786;51.270;4.456;2023-05-29T15:24:56;8.23;;;3.40;;
9496;SDS011;4786;51.270;4.456;2023-05-29T15:27:22;8.00;;;3.53;;
9496;SDS011;4786;51.270;4.456;2023-05-29T15:29:52;8.57;;;3.50;;